Time;durP1;ratioP1;P1;durP2;ratioP2;P2;SDS_P1;SDS_P2;PMS_P1;PMS_P2;Temp;Humidity;BMP_temperature;BMP_pressure;BME280_temperature;BME280_humidity;BME280_pressure;Samples;Min_cycle;Max_cycle;Signal;HPM_P1;HPM_P2
2022/12/10 00:01:47;;;;;;;12.30;8.73;;;;;;;3.24;100.00;100412.78;1778409;80;21536;-69
2022/12/10 00:04:15;;;;;;;15.10;9.10;;;;;;;3.24;100.00;100412.31;1775467;80;21045;-64
2022/12/10 00:06:44;;;;;;;15.45;9.38;;;;;;;3.24;100.00;100416.65;1766045;80;21100;-63
2022/12/10 00:09:15;;;;;;;13.68;8.80;;;;;;;3.25;100.00;100423.42;1756032;80;21084;-62
2022/12/10 00:11:42;;;;;;;14.78;9.43;;;;;;;3.24;100.00;100420.52;1778212;80;21887;-69
2022/12/10 00:14:11;;;;;;;11.53;7.65;;;;;;;3.24;100.00;100421.33;1744505;82;22185;-60
2022/12/10 00:16:38;;;;;;;12.20;8.33;;;;;;;3.25;100.00;100423.42;1730386;81;21516;-60
2022/12/10 00:19:06;;;;;;;14.50;9.33;;;;;;;3.27;100.00;100424.94;1753270;81;21515;-60
2022/12/10 00:21:34;;;;;;;17.37;10.75;;;;;;;3.28;100.00;100419.30;1756445;81;20915;-64
2022/12/10 00:24:02;;;;;;;18.95;10.30;;;;;;;3.24;100.00;100419.22;1757195;81;21833;-61
2022/12/10 00:26:34;;;;;;;16.12;9.33;;;;;;;3.25;100.00;100419.08;1757876;81;21550;-60
2022/12/10 00:29:02;;;;;;;16.65;9.75;;;;;;;3.22;100.00;100409.06;1757854;81;20927;-60
2022/12/10 00:31:33;;;;;;;13.05;8.43;;;;;;;3.23;100.00;100408.11;1757636;81;21014;-61
2022/12/10 00:34:03;;;;;;;11.65;7.45;;;;;;;3.22;100.00;100408.22;1757198;81;20983;-61
2022/12/10 00:36:37;;;;;;;13.32;8.50;;;;;;;3.19;100.00;100409.80;1757857;81;21205;-60
2022/12/10 00:39:04;;;;;;;13.13;8.60;;;;;;;3.13;100.00;100414.51;1757890;81;20914;-61
2022/12/10 00:41:32;;;;;;;12.40;8.18;;;;;;;3.13;100.00;100408.06;1757566;81;20891;-67
2022/12/10 00:44:02;;;;;;;13.48;8.38;;;;;;;3.13;100.00;100400.34;1757138;81;21586;-63
2022/12/10 00:46:30;;;;;;;15.68;9.33;;;;;;;3.11;100.00;100398.39;1757917;81;20988;-60
2022/12/10 00:48:59;;;;;;;16.12;9.70;;;;;;;3.15;100.00;100395.08;1757870;81;21319;-60
2022/12/10 00:51:27;;;;;;;15.55;9.75;;;;;;;3.08;100.00;100390.92;1758345;81;20927;-60
2022/12/10 00:53:55;;;;;;;14.98;9.83;;;;;;;3.05;100.00;100389.08;1756675;81;20883;-62
2022/12/10 00:56:26;;;;;;;17.70;10.38;;;;;;;3.07;100.00;100385.87;1757923;81;21005;-60
2022/12/10 00:58:53;;;;;;;16.62;10.38;;;;;;;2.99;100.00;100387.82;1758082;81;20918;-60
2022/12/10 01:01:29;;;;;;;15.53;9.95;;;;;;;3.00;100.00;100392.53;1757979;81;21154;-61
2022/12/10 01:04:05;;;;;;;18.15;11.05;;;;;;;3.02;100.00;100393.20;1757193;81;21017;-61
2022/12/10 01:06:36;;;;;;;13.72;8.83;;;;;;;3.04;100.00;100384.88;1757941;81;21487;-62
2022/12/10 01:09:06;;;;;;;15.70;9.90;;;;;;;3.09;100.00;100391.25;1757695;81;20999;-61
2022/12/10 01:11:37;;;;;;;19.10;10.43;;;;;;;3.07;100.00;100385.44;1756914;81;21659;-68
2022/12/10 01:14:08;;;;;;;15.88;10.23;;;;;;;3.10;100.00;100387.72;1758194;81;21233;-62
2022/12/10 01:16:35;;;;;;;15.90;10.32;;;;;;;3.11;100.00;100385.52;1787056;79;20912;-62
2022/12/10 01:19:02;;;;;;;16.27;10.43;;;;;;;3.11;100.00;100384.22;1788568;79;20927;-63
2022/12/10 01:21:30;;;;;;;18.02;10.58;;;;;;;3.07;100.00;100375.13;1787622;80;20959;-61
2022/12/10 01:23:57;;;;;;;17.20;10.20;;;;;;;3.04;100.00;100381.83;1788871;80;21050;-61
2022/12/10 01:26:28;;;;;;;17.05;11.03;;;;;;;2.99;100.00;100377.52;1788841;80;21947;-62
2022/12/10 01:28:56;;;;;;;15.85;9.53;;;;;;;3.03;100.00;100375.05;1788361;78;21539;-69
2022/12/10 01:31:26;;;;;;;20.05;10.70;;;;;;;3.04;100.00;100375.39;1787926;79;21007;-62
2022/12/10 01:33:53;;;;;;;17.05;9.83;;;;;;;3.03;100.00;100384.07;1788645;79;21082;-61
2022/12/10 01:36:24;;;;;;;17.15;11.20;;;;;;;3.07;100.00;100388.01;1788874;80;21448;-62
2022/12/10 01:38:51;;;;;;;16.25;10.82;;;;;;;3.13;100.00;100390.04;1788684;80;21236;-67
2022/12/10 01:41:25;;;;;;;15.83;9.88;;;;;;;3.20;100.00;100381.80;1788090;80;20994;-61
2022/12/10 01:44:01;;;;;;;15.15;10.58;;;;;;;3.21;100.00;100386.00;1788716;80;20967;-63
2022/12/10 01:46:34;;;;;;;18.23;10.60;;;;;;;3.17;100.00;100386.73;1788835;80;21039;-69
2022/12/10 01:49:06;;;;;;;16.60;10.03;;;;;;;3.15;100.00;100399.75;1788181;80;21002;-61
2022/12/10 01:51:35;;;;;;;18.32;11.12;;;;;;;3.13;100.00;100389.23;1788825;80;22057;-62
2022/12/10 01:54:06;;;;;;;18.23;11.12;;;;;;;3.10;100.00;100391.58;1771407;80;20880;-63
2022/12/10 01:56:38;;;;;;;15.40;10.57;;;;;;;3.10;100.00;100387.72;1788442;80;20836;-66
2022/12/10 01:59:05;;;;;;;18.73;10.35;;;;;;;3.09;100.00;100385.29;1788752;79;20861;-62
2022/12/10 02:01:38;;;;;;;16.80;10.48;;;;;;;3.09;100.00;100382.23;1788654;78;21019;-62
2022/12/10 02:04:29;;;;;;;18.00;11.15;;;;;;;3.07;100.00;100384.14;1788135;80;21387;-66
2022/12/10 02:07:12;;;;;;;17.05;10.38;;;;;;;3.08;100.00;100381.09;1788716;80;22123;-62
2022/12/10 02:09:56;;;;;;;19.12;11.08;;;;;;;3.08;100.00;100387.05;1788343;80;21476;-69
2022/12/10 02:12:56;;;;;;;17.57;11.05;;;;;;;3.09;100.00;100388.67;1787226;79;21541;-62
2022/12/10 02:15:30;;;;;;;17.30;10.93;;;;;;;3.09;100.00;100387.87;1788175;80;21086;-61
2022/12/10 02:18:20;;;;;;;18.00;11.05;;;;;;;3.09;100.00;100382.23;1776098;80;21352;-62
2022/12/10 02:20:54;;;;;;;18.23;10.55;;;;;;;3.08;100.00;100384.48;1788628;79;21472;-63
2022/12/10 02:23:42;;;;;;;18.17;10.10;;;;;;;3.11;100.00;100387.27;1788691;79;20976;-63
2022/12/10 02:26:15;;;;;;;19.42;11.78;;;;;;;3.12;100.00;100384.55;1788924;79;20975;-69
2022/12/10 02:29:20;;;;;;;18.07;11.93;;;;;;;3.11;100.00;100386.80;1768173;80;21520;-68
2022/12/10 02:32:04;;;;;;;20.88;11.95;;;;;;;3.16;100.00;100380.77;1771264;80;21243;-60
2022/12/10 02:34:36;;;;;;;20.35;11.33;;;;;;;3.17;100.00;100385.44;1765076;80;20899;-61
2022/12/10 02:37:24;;;;;;;21.65;12.43;;;;;;;3.21;100.00;100383.42;1757260;80;21089;-62
2022/12/10 02:39:54;;;;;;;20.57;12.15;;;;;;;3.18;100.00;100374.19;1741005;81;21088;-66
2022/12/10 02:42:22;;;;;;;19.30;12.37;;;;;;;3.19;100.00;100390.48;1710184;83;21013;-63
2022/12/10 02:44:49;;;;;;;20.02;11.90;;;;;;;3.19;100.00;100384.85;1710159;83;21145;-70
2022/12/10 02:47:17;;;;;;;19.37;12.10;;;;;;;3.14;100.00;100385.70;1709907;83;20843;-63
2022/12/10 02:49:52;;;;;;;23.50;13.55;;;;;;;3.13;100.00;100384.89;1710163;83;20942;-63
2022/12/10 02:52:20;;;;;;;22.07;13.30;;;;;;;3.16;100.00;100391.55;1727866;82;22116;-61
2022/12/10 02:54:49;;;;;;;22.10;11.93;;;;;;;3.14;100.00;100391.69;1739520;82;21030;-68
2022/12/10 02:57:44;;;;;;;21.42;13.43;;;;;;;3.17;100.00;100387.54;1738386;79;21065;-62
2022/12/10 03:00:21;;;;;;;20.30;13.13;;;;;;;3.20;100.00;100390.81;1734841;82;21666;-63
2022/12/10 03:03:19;;;;;;;24.65;14.28;;;;;;;3.21;100.00;100388.57;1715086;82;21318;-65
2022/12/10 03:06:13;;;;;;;27.48;14.90;;;;;;;3.23;100.00;100386.69;1729162;80;21970;-64
2022/12/10 03:08:49;;;;;;;20.95;11.83;;;;;;;3.28;100.00;100382.75;1728509;82;21147;-70
2022/12/10 03:11:21;;;;;;;21.70;13.65;;;;;;;3.29;100.00;100381.80;1739902;81;21234;-63
2022/12/10 03:14:15;;;;;;;26.02;15.83;;;;;;;3.27;100.00;100374.70;1739046;81;21048;-64
2022/12/10 03:16:46;;;;;;;24.52;14.65;;;;;;;3.29;100.00;100373.27;1736489;82;21552;-60
2022/12/10 03:19:17;;;;;;;23.73;15.45;;;;;;;3.28;100.00;100371.64;1739295;82;21630;-63
2022/12/10 03:21:44;;;;;;;21.57;13.25;;;;;;;3.25;100.00;100373.19;1716945;82;21159;-61
2022/12/10 03:24:11;;;;;;;32.25;14.75;;;;;;;3.19;100.00;100367.30;1731208;80;21509;-68
2022/12/10 03:26:39;;;;;;;23.18;13.72;;;;;;;3.19;100.00;100369.88;1732102;82;21009;-63
2022/12/10 03:29:14;;;;;;;27.20;14.60;;;;;;;3.18;100.00;100363.88;1739826;82;20914;-68
2022/12/10 03:31:41;;;;;;;24.23;14.78;;;;;;;3.17;100.00;100355.34;1736618;81;21121;-61
2022/12/10 03:34:09;;;;;;;23.00;14.13;;;;;;;3.15;100.00;100353.87;1738866;80;20938;-63
2022/12/10 03:36:37;;;;;;;25.90;14.70;;;;;;;3.15;100.00;100350.81;1727848;82;21170;-61
2022/12/10 03:39:05;;;;;;;25.30;14.43;;;;;;;3.14;100.00;100345.33;1739818;82;21518;-64
2022/12/10 03:41:32;;;;;;;26.70;15.45;;;;;;;3.12;100.00;100351.08;1740319;82;21057;-60
2022/12/10 03:43:59;;;;;;;24.63;14.98;;;;;;;3.09;100.00;100349.23;1740435;82;21492;-66
2022/12/10 03:46:31;;;;;;;23.42;13.80;;;;;;;3.11;100.00;100346.06;1739897;82;20920;-61
2022/12/10 03:48:59;;;;;;;27.22;15.40;;;;;;;3.10;100.00;100356.00;1740069;82;25142;-69
2022/12/10 03:51:28;;;;;;;25.20;15.58;;;;;;;3.08;100.00;100344.56;1740274;82;21518;-61
2022/12/10 03:53:55;;;;;;;26.45;14.53;;;;;;;3.07;100.00;100349.83;1740391;82;20975;-61
2022/12/10 03:56:23;;;;;;;22.45;14.00;;;;;;;3.07;100.00;100360.97;1739700;82;21086;-62
2022/12/10 03:58:50;;;;;;;23.30;14.65;;;;;;;3.08;100.00;100356.15;1739957;82;21038;-67
2022/12/10 04:01:17;;;;;;;22.50;13.95;;;;;;;3.11;100.00;100353.80;1740320;82;21196;-61
2022/12/10 04:03:46;;;;;;;25.77;15.85;;;;;;;3.10;100.00;100347.80;1740378;82;22294;-61
2022/12/10 04:06:17;;;;;;;22.85;14.95;;;;;;;3.12;100.00;100342.06;1739883;82;20940;-62
2022/12/10 04:08:44;;;;;;;26.00;16.00;;;;;;;3.12;100.00;100342.53;1739969;82;21629;-66
2022/12/10 04:11:11;;;;;;;26.82;14.75;;;;;;;3.10;100.00;100341.84;1740388;82;21010;-61
2022/12/10 08:03:05;;;;;;;24.83;16.53;;;;;;;3.97;100.00;100352.18;1788496;80;22421;-67
2022/12/10 08:05:33;;;;;;;28.03;16.23;;;;;;;3.96;100.00;100359.59;1761884;81;21458;-65
2022/12/10 08:08:01;;;;;;;31.63;17.33;;;;;;;4.02;100.00;100371.95;1761735;80;21195;-65
2022/12/10 08:10:28;;;;;;;27.80;17.03;;;;;;;4.06;100.00;100355.23;1761170;80;21163;-65
2022/12/10 08:12:56;;;;;;;26.17;15.40;;;;;;;4.15;100.00;100354.39;1761218;81;21272;-68
2022/12/10 08:15:23;;;;;;;23.63;15.10;;;;;;;4.20;100.00;100351.88;1760988;81;21806;-65
2022/12/10 08:17:51;;;;;;;27.07;16.40;;;;;;;4.32;100.00;100353.36;1760868;80;21414;-65
2022/12/10 08:20:18;;;;;;;24.43;16.40;;;;;;;4.38;100.00;100356.65;1761239;81;21204;-65
2022/12/10 08:22:45;;;;;;;26.53;19.17;;;;;;;4.45;100.00;100354.33;1761258;81;21687;-65
2022/12/10 08:25:13;;;;;;;32.93;21.23;;;;;;;4.53;100.00;100367.34;1759645;80;21149;-66
2022/12/10 08:27:40;;;;;;;29.03;18.53;;;;;;;4.83;100.00;100358.52;1760771;81;22217;-65
2022/12/10 08:30:08;;;;;;;23.37;15.47;;;;;;;4.58;100.00;100354.36;1761287;81;21235;-65
2022/12/10 08:32:36;;;;;;;24.70;15.67;;;;;;;4.52;100.00;100355.39;1761387;81;21284;-65
2022/12/10 08:35:04;;;;;;;24.03;14.87;;;;;;;4.49;100.00;100357.77;1761162;81;21789;-67
2022/12/10 08:37:31;;;;;;;22.93;14.47;;;;;;;4.57;100.00;100351.42;1760228;80;22074;-66
2022/12/10 08:39:58;;;;;;;26.00;17.00;;;;;;;4.61;100.00;100340.34;1761101;80;21281;-65
2022/12/10 08:42:26;;;;;;;33.80;21.80;;;;;;;4.63;100.00;100339.73;1760855;81;21322;-65
2022/12/10 08:44:53;;;;;;;23.97;15.80;;;;;;;4.70;100.00;100333.49;1760865;81;21362;-67
2022/12/10 08:47:20;;;;;;;24.47;15.47;;;;;;;4.80;100.00;100334.27;1759920;81;21779;-66
2022/12/10 08:49:48;;;;;;;25.33;16.20;;;;;;;4.84;100.00;100334.31;1760328;81;21683;-65
2022/12/10 08:52:16;;;;;;;25.80;15.63;;;;;;;4.92;100.00;100327.95;1760749;81;21792;-65
2022/12/10 08:54:43;;;;;;;24.47;15.83;;;;;;;4.98;100.00;100314.47;1760653;80;20931;-65
2022/12/10 09:05:43;;;;;;;32.00;18.07;;;;;;;4.20;100.00;100301.56;1777574;79;22820;-65
2022/12/10 09:08:11;;;;;;;29.63;18.80;;;;;;;4.59;100.00;100309.51;1724780;83;22440;-66
2022/12/10 09:10:38;;;;;;;30.67;17.63;;;;;;;4.71;100.00;100305.45;1724475;82;21155;-67
2022/12/10 09:13:06;;;;;;;27.87;17.90;;;;;;;4.83;100.00;100303.00;1724046;83;21095;-67
2022/12/10 09:15:33;;;;;;;26.80;16.20;;;;;;;4.94;100.00;100300.22;1724915;82;21802;-65
2022/12/10 09:18:00;;;;;;;34.03;20.00;;;;;;;5.00;100.00;100292.34;1724198;83;21794;-65
2022/12/10 09:20:28;;;;;;;28.00;18.73;;;;;;;5.08;100.00;100295.04;1724261;83;21179;-68
2022/12/10 09:22:55;;;;;;;31.60;19.47;;;;;;;5.18;100.00;100292.38;1724152;82;21220;-66
2022/12/10 09:25:22;;;;;;;28.83;18.37;;;;;;;5.22;100.00;100284.17;1724423;83;21249;-65
2022/12/10 09:27:50;;;;;;;28.83;17.97;;;;;;;5.29;100.00;100290.86;1724616;83;21769;-65
2022/12/10 09:30:17;;;;;;;26.87;17.53;;;;;;;5.36;100.00;100282.85;1724436;83;21172;-65
2022/12/10 09:32:44;;;;;;;27.73;16.00;;;;;;;5.42;100.00;100278.39;1723749;83;21269;-68
2022/12/10 09:35:11;;;;;;;27.27;18.13;;;;;;;5.49;100.00;100277.30;1724915;83;22554;-65
2022/12/10 09:37:39;;;;;;;25.87;16.83;;;;;;;5.45;100.00;100270.31;1724886;83;21715;-64
2022/12/10 09:40:07;;;;;;;27.37;17.00;;;;;;;5.48;100.00;100271.80;1724491;83;21247;-65
2022/12/10 09:43:02;;;;;;;28.73;18.60;;;;;;;5.50;100.00;100263.42;1724658;83;21197;-66
2022/12/10 09:45:50;;;;;;;23.37;15.27;;;;;;;5.53;100.00;100264.39;1724919;82;21246;-66
2022/12/10 09:48:25;;;;;;;28.00;18.10;;;;;;;5.58;100.00;100260.41;1689973;82;21329;-69
2022/12/10 09:51:24;;;;;;;44.17;20.83;;;;;;;5.66;100.00;100257.08;1723444;82;21631;-66
2022/12/10 09:53:58;;;;;;;32.50;18.67;;;;;;;5.71;100.00;100258.72;1722736;82;21200;-66
2022/12/10 09:56:23;;;;;;;31.70;20.03;;;;;;;5.75;100.00;100259.22;1724415;82;21305;-65
2022/12/10 09:58:50;;;;;;;35.97;19.97;;;;;;;5.73;100.00;100246.95;1724853;83;21749;-65
2022/12/10 10:01:19;;;;;;;32.03;17.97;;;;;;;5.73;100.00;100243.06;1724739;83;21294;-65
2022/12/10 10:03:46;;;;;;;31.77;18.17;;;;;;;5.74;100.00;100245.48;1722930;81;21290;-66
2022/12/10 10:06:14;;;;;;;28.13;16.70;;;;;;;5.80;100.00;100246.19;1711830;83;22368;-66
2022/12/10 10:08:46;;;;;;;29.43;18.10;;;;;;;5.90;100.00;100229.25;1712353;82;21133;-65
2022/12/10 10:11:19;;;;;;;31.67;18.83;;;;;;;5.92;100.00;100234.28;1711887;82;21047;-66
2022/12/10 10:13:57;;;;;;;32.10;18.57;;;;;;;5.96;100.00;100228.67;1710757;83;21225;-65
2022/12/10 10:16:27;;;;;;;28.90;17.60;;;;;;;5.97;100.00;100233.37;1711642;83;21176;-64
2022/12/10 10:19:13;;;;;;;25.83;16.67;;;;;;;5.99;100.00;100227.08;1711493;83;21749;-65
2022/12/10 10:21:51;;;;;;;28.03;18.00;;;;;;;6.03;100.00;100236.16;1701945;83;21818;-65
2022/12/10 10:24:24;;;;;;;28.43;18.63;;;;;;;6.01;100.00;100229.50;1711630;83;21850;-65
2022/12/10 10:26:53;;;;;;;25.47;16.77;;;;;;;6.00;100.00;100220.13;1710429;83;22552;-67
2022/12/10 10:29:20;;;;;;;27.37;17.20;;;;;;;6.04;100.00;100215.78;1701342;83;21585;-65
2022/12/10 10:31:47;;;;;;;27.47;17.40;;;;;;;6.04;100.00;100219.66;1711263;83;20969;-66
2022/12/10 10:34:22;;;;;;;28.87;17.33;;;;;;;6.11;100.00;100221.64;1701062;83;21227;-65
2022/12/10 10:36:59;;;;;;;32.80;19.00;;;;;;;6.16;100.00;100224.56;1710935;83;21256;-68
2022/12/10 10:39:30;;;;;;;30.80;17.33;;;;;;;6.09;100.00;100231.64;1711684;83;21281;-66
2022/12/10 10:41:59;;;;;;;29.50;18.43;;;;;;;6.05;100.00;100223.86;1711462;82;21286;-66
2022/12/10 10:44:30;;;;;;;28.00;16.17;;;;;;;6.01;100.00;100218.67;1711496;82;21056;-65
2022/12/10 10:46:57;;;;;;;27.73;16.97;;;;;;;5.99;100.00;100219.81;1710121;82;21235;-66
2022/12/10 10:49:29;;;;;;;30.83;17.30;;;;;;;5.97;100.00;100212.18;1710963;83;21665;-65
2022/12/10 10:52:15;;;;;;;27.97;17.67;;;;;;;5.95;100.00;100206.37;1711233;83;21316;-65
2022/12/10 10:54:44;;;;;;;29.60;17.97;;;;;;;5.91;100.00;100203.73;1718836;82;21210;-68
2022/12/10 10:57:25;;;;;;;37.07;24.03;;;;;;;5.83;100.00;100195.90;1723731;82;21411;-65
2022/12/10 10:59:59;;;;;;;35.20;21.55;;;;;;;5.84;100.00;100190.59;1701751;83;21299;-66
2022/12/10 11:02:37;;;;;;;35.67;20.13;;;;;;;5.82;100.00;100187.33;1727582;82;21507;-66
2022/12/10 11:05:26;;;;;;;29.10;18.30;;;;;;;5.76;100.00;100191.04;1738932;81;21232;-66
2022/12/10 11:08:02;;;;;;;29.77;19.43;;;;;;;5.71;100.00;100190.66;1738898;82;21660;-66
2022/12/10 11:10:29;;;;;;;36.20;21.50;;;;;;;5.72;100.00;100185.36;1743104;82;21000;-66
2022/12/10 11:13:20;;;;;;;33.10;19.10;;;;;;;5.69;100.00;100179.20;1739513;82;21217;-66
2022/12/10 11:15:57;;;;;;;29.63;19.20;;;;;;;5.73;100.00;100185.67;1739162;81;21300;-68
2022/12/10 11:18:36;;;;;;;33.13;19.03;;;;;;;5.71;100.00;100182.91;1729853;82;21969;-66
2022/12/10 11:21:16;;;;;;;32.63;18.13;;;;;;;5.71;100.00;100177.73;1745464;82;21153;-67
2022/12/10 11:23:49;;;;;;;29.97;20.13;;;;;;;5.73;100.00;100173.23;1744755;82;21700;-67
2022/12/10 11:26:25;;;;;;;28.07;18.80;;;;;;;5.72;100.00;100169.00;1745819;82;21717;-66
2022/12/10 11:29:12;;;;;;;33.63;19.70;;;;;;;5.73;100.00;100166.77;1745416;82;21060;-67
2022/12/10 11:32:03;;;;;;;37.03;19.83;;;;;;;5.70;100.00;100163.19;1745596;81;21422;-66
2022/12/10 11:35:02;;;;;;;32.17;19.33;;;;;;;5.70;100.00;100169.17;1745398;82;21307;-67
2022/12/10 11:37:37;;;;;;;34.43;20.27;;;;;;;5.68;100.00;100166.40;1746084;82;21221;-66
2022/12/10 11:40:24;;;;;;;32.57;20.67;;;;;;;5.71;100.00;100166.91;1745878;82;21392;-67
2022/12/10 11:43:24;;;;;;;30.87;19.83;;;;;;;5.67;100.00;100168.66;1745949;82;21043;-66
2022/12/10 11:46:05;;;;;;;55.80;39.20;;;;;;;5.68;100.00;100155.56;1746161;82;21774;-66
2022/12/10 11:48:56;;;;;;;34.53;24.00;;;;;;;5.64;100.00;100145.69;1745745;80;21713;-67
2022/12/10 11:51:47;;;;;;;94.47;84.93;;;;;;;5.61;100.00;100138.58;1745893;82;21740;-66
2022/12/10 11:54:36;;;;;;;82.93;74.50;;;;;;;5.53;100.00;100138.55;1746000;82;21301;-66
2022/12/10 11:57:28;;;;;;;44.37;33.53;;;;;;;5.56;100.00;100145.97;1746415;82;21792;-66
2022/12/10 12:00:24;;;;;;;53.80;45.93;;;;;;;5.64;100.00;100146.49;1745563;82;21251;-69
2022/12/10 12:03:05;;;;;;;43.27;31.87;;;;;;;5.70;100.00;100150.26;1745624;80;20924;-67
2022/12/10 12:06:06;;;;;;;72.65;64.92;;;;;;;5.70;100.00;100151.55;1749247;81;26180;-68
2022/12/10 12:08:47;;;;;;;32.53;21.10;;;;;;;5.73;100.00;100153.84;1753085;81;20997;-66
2022/12/10 12:11:44;;;;;;;39.00;30.53;;;;;;;5.81;100.00;100149.99;1753821;81;21907;-66
2022/12/10 12:14:31;;;;;;;31.37;20.53;;;;;;;5.82;100.00;100143.84;1752934;81;21703;-69
2022/12/10 12:17:07;;;;;;;38.83;28.43;;;;;;;5.91;100.00;100128.70;1754030;81;21086;-66
2022/12/10 12:19:43;;;;;;;33.37;25.30;;;;;;;5.92;100.00;100131.64;1752803;81;21105;-67
2022/12/10 12:22:27;;;;;;;33.30;20.57;;;;;;;5.95;100.00;100131.83;1753699;81;21213;-66
2022/12/10 12:25:17;;;;;;;146.57;91.47;;;;;;;5.94;100.00;100128.40;1753845;81;21101;-65
2022/12/10 12:27:50;;;;;;;56.70;43.80;;;;;;;5.92;100.00;100121.75;1750568;81;22478;-66
2022/12/10 12:30:21;;;;;;;55.77;47.87;;;;;;;5.93;100.00;100124.69;1753841;81;21204;-65
2022/12/10 12:33:12;;;;;;;50.60;36.58;;;;;;;5.95;100.00;100120.98;1753434;81;21235;-68
2022/12/10 12:35:56;;;;;;;50.88;38.02;;;;;;;5.97;100.00;100121.63;1736624;81;21154;-65
2022/12/10 12:38:31;;;;;;;32.90;22.23;;;;;;;6.01;100.00;100129.89;1753031;81;20972;-66
2022/12/10 12:41:25;;;;;;;45.47;33.43;;;;;;;6.03;100.00;100119.72;1753257;81;21287;-68
2022/12/10 12:44:03;;;;;;;38.13;28.73;;;;;;;6.00;100.00;100125.69;1752786;81;21656;-67
2022/12/10 12:46:40;;;;;;;35.67;27.87;;;;;;;5.97;100.00;100122.92;1752732;81;21185;-67
2022/12/10 12:49:24;;;;;;;31.40;21.67;;;;;;;6.01;100.00;100120.34;1753682;81;21280;-66
2022/12/10 12:52:13;;;;;;;33.77;21.73;;;;;;;6.03;100.00;100119.72;1753254;81;21130;-67
2022/12/10 12:54:41;;;;;;;34.20;21.77;;;;;;;6.05;100.00;100120.35;1753467;81;21332;-66
2022/12/10 12:57:28;;;;;;;31.27;21.90;;;;;;;6.11;100.00;100115.05;1752933;81;21289;-68
2022/12/10 13:00:04;;;;;;;35.53;22.20;;;;;;;6.15;100.00;100103.90;1753465;81;21703;-65
2022/12/10 13:03:22;;;;;;;35.63;23.33;;;;;;;6.20;100.00;100099.05;1753768;81;21248;-65
2022/12/10 13:05:51;;;;;;;42.97;30.50;;;;;;;6.15;100.00;100103.90;1746394;81;21114;-66
2022/12/10 13:08:24;;;;;;;31.17;22.90;;;;;;;6.13;100.00;100103.23;1740419;81;21249;-67
2022/12/10 13:11:18;;;;;;;39.93;26.93;;;;;;;6.16;100.00;100102.92;1740036;82;21690;-68
2022/12/10 13:14:09;;;;;;;33.80;25.23;;;;;;;6.20;100.00;100106.33;1740275;82;21318;-66
2022/12/10 13:16:45;;;;;;;38.13;27.58;;;;;;;6.22;100.00;100099.72;1740328;82;21111;-66
2022/12/10 13:19:23;;;;;;;37.63;24.47;;;;;;;6.17;100.00;100100.17;1740630;81;20940;-66
2022/12/10 13:22:11;;;;;;;33.70;20.97;;;;;;;6.14;100.00;100099.21;1740168;82;21626;-66
2022/12/10 13:24:44;;;;;;;33.73;22.57;;;;;;;6.13;100.00;100092.88;1753710;81;21251;-66
2022/12/10 13:27:18;;;;;;;31.13;21.03;;;;;;;6.13;100.00;100085.12;1740022;82;21197;-68
2022/12/10 13:29:51;;;;;;;31.73;21.30;;;;;;;6.13;100.00;100086.41;1740180;82;21628;-68
2022/12/10 13:32:32;;;;;;;30.30;20.77;;;;;;;6.13;100.00;100091.59;1740248;81;21602;-66
2022/12/10 13:35:16;;;;;;;38.58;23.62;;;;;;;6.13;100.00;100089.80;1740399;81;21230;-68
2022/12/10 13:37:55;;;;;;;28.97;21.10;;;;;;;6.14;100.00;100088.02;1739319;81;21510;-66
2022/12/10 13:44:23;;;;;;;35.00;21.73;;;;;;;6.13;100.00;100085.12;1730473;82;21106;-66
2022/12/10 13:46:33;;;;;;;33.40;22.23;;;;;;;6.18;100.00;100088.06;1726134;81;22036;-67
2022/12/10 13:49:03;;;;;;;31.43;23.00;;;;;;;6.18;100.00;100088.06;1740853;82;21248;-66
2022/12/10 13:51:38;;;;;;;45.60;40.77;;;;;;;6.17;100.00;100094.99;1740190;81;21133;-66
2022/12/10 13:54:32;;;;;;;30.90;20.67;;;;;;;6.23;100.00;100081.92;1740250;81;22045;-67
2022/12/10 13:57:10;;;;;;;29.97;19.53;;;;;;;6.25;100.00;100073.49;1740028;81;21704;-68
2022/12/10 13:59:59;;;;;;;27.40;19.27;;;;;;;6.24;100.00;100076.56;1740185;81;21237;-66
2022/12/10 14:02:58;;;;;;;33.20;23.10;;;;;;;6.25;100.00;100072.20;1740145;81;21250;-70
2022/12/10 14:05:56;;;;;;;26.77;20.00;;;;;;;6.27;100.00;100065.91;1713887;81;21254;-66
2022/12/10 14:08:33;;;;;;;30.80;23.83;;;;;;;6.26;100.00;100066.88;1753144;81;21910;-66
2022/12/10 14:11:01;;;;;;;34.80;26.43;;;;;;;6.23;100.00;100069.78;1753544;81;21777;-69
2022/12/10 14:13:45;;;;;;;37.00;24.97;;;;;;;6.20;100.00;100064.11;1733002;81;21258;-68
2022/12/10 14:16:14;;;;;;;39.63;28.70;;;;;;;6.18;100.00;100057.81;1730369;81;21227;-66
2022/12/10 14:18:46;;;;;;;29.87;21.07;;;;;;;6.08;100.00;100061.83;1732736;81;21564;-67
2022/12/10 14:21:14;;;;;;;32.60;21.10;;;;;;;5.99;100.00;100054.22;1734722;81;21208;-67
2022/12/10 14:23:46;;;;;;;35.07;25.17;;;;;;;5.90;100.00;100045.57;1723288;83;21104;-67
2022/12/10 14:26:17;;;;;;;;;;;;;;;5.85;100.00;100039.59;1725931;83;21309;-65
2022/12/10 14:28:47;;;;;;;31.57;21.97;;;;;;;5.87;100.00;100025.19;1723438;82;21955;-66
2022/12/10 14:31:28;;;;;;;26.13;17.63;;;;;;;5.86;100.00;100034.73;1723395;83;21071;-67
2022/12/10 14:33:59;;;;;;;25.77;17.20;;;;;;;5.81;100.00;100034.89;1709085;83;21666;-66
2022/12/10 14:36:36;;;;;;;32.53;19.98;;;;;;;5.74;100.00;100041.16;1728504;81;21071;-65
2022/12/10 14:39:04;;;;;;;28.83;19.53;;;;;;;5.74;100.00;100037.28;1730260;81;21007;-66
2022/12/10 14:41:31;;;;;;;30.60;19.57;;;;;;;5.77;100.00;100031.00;1706348;83;21581;-63
2022/12/10 14:44:02;;;;;;;25.60;18.20;;;;;;;5.80;100.00;100042.33;1723942;81;22804;-62
2022/12/10 14:46:31;;;;;;;26.48;17.70;;;;;;;5.86;100.00;100033.92;1708283;83;21893;-62
2022/12/10 14:48:58;;;;;;;26.90;17.83;;;;;;;5.99;100.00;100027.05;1724334;81;20995;-62
2022/12/10 14:51:28;;;;;;;26.80;17.50;;;;;;;6.05;100.00;100033.67;1722669;83;21366;-63
2022/12/10 14:53:55;;;;;;;25.30;18.17;;;;;;;6.16;100.00;100051.97;1723956;82;21606;-61
2022/12/10 14:56:33;;;;;;;22.90;15.83;;;;;;;6.29;100.00;100033.41;1723984;81;21401;-61
2022/12/10 14:59:24;;;;;;;22.27;16.87;;;;;;;6.42;100.00;100033.72;1734851;81;21165;-62
2022/12/10 15:01:56;;;;;;;23.80;16.40;;;;;;;6.48;100.00;100031.80;1747633;81;21237;-61
2022/12/10 15:04:24;;;;;;;24.55;16.97;;;;;;;6.57;100.00;100037.28;1737483;81;21109;-61
2022/12/10 15:06:51;;;;;;;24.60;17.43;;;;;;;6.67;100.00;100035.03;1732691;81;21337;-67
2022/12/10 15:09:24;;;;;;;24.80;17.27;;;;;;;6.74;100.00;100035.97;1712789;81;22723;-61
2022/12/10 15:11:55;;;;;;;26.00;18.30;;;;;;;6.77;100.00;100029.97;1728761;82;21204;-63
2022/12/10 15:14:23;;;;;;;24.90;17.70;;;;;;;6.81;100.00;100028.67;1725491;82;21226;-67
2022/12/10 15:16:55;;;;;;;23.23;16.93;;;;;;;6.81;100.00;100036.94;1716723;81;21169;-61
2022/12/10 15:19:29;;;;;;;26.62;17.75;;;;;;;6.86;100.00;100032.09;1737865;81;21347;-62
2022/12/10 15:22:01;;;;;;;27.23;17.17;;;;;;;6.86;100.00;100028.20;1723708;82;20987;-61
2022/12/10 15:24:38;;;;;;;26.53;17.60;;;;;;;6.85;100.00;100028.34;1739957;81;21585;-61
2022/12/10 15:27:18;;;;;;;25.00;17.40;;;;;;;6.87;100.00;100025.92;1728168;82;21692;-62
2022/12/10 15:29:45;;;;;;;29.63;22.93;;;;;;;6.91;100.00;100042.77;1724345;82;21257;-67
2022/12/10 15:32:22;;;;;;;46.30;39.13;;;;;;;6.90;100.00;100030.78;1722800;82;21337;-61
2022/12/10 15:34:54;;;;;;;24.87;18.33;;;;;;;6.92;100.00;100031.41;1719618;82;21287;-63
2022/12/10 15:37:27;;;;;;;65.97;59.87;;;;;;;6.96;100.00;100035.78;1740394;82;21170;-62
2022/12/10 15:39:56;;;;;;;36.40;32.67;;;;;;;6.96;100.00;100035.78;1739796;82;21285;-62
2022/12/10 15:42:41;;;;;;;47.00;42.30;;;;;;;6.95;100.00;100027.20;1734903;81;21432;-63
2022/12/10 15:45:23;;;;;;;33.63;26.30;;;;;;;6.97;100.00;100039.98;1732096;82;21727;-62